createdAt,value
2023-01-18T00:00:58.767Z,2.11
2023-01-18T00:01:59.139Z,2.13
2023-01-18T00:02:59.155Z,2.11
2023-01-18T00:03:58.790Z,2.10
2023-01-18T00:04:58.787Z,2.10
2023-01-18T00:05:58.725Z,2.11
2023-01-18T00:06:58.697Z,2.07
2023-01-18T00:07:58.770Z,2.04
2023-01-18T00:08:58.683Z,2.02
2023-01-18T00:09:58.700Z,1.99
2023-01-18T00:10:58.652Z,1.97
2023-01-18T00:11:58.663Z,1.95
2023-01-18T00:12:58.979Z,1.97
2023-01-18T00:13:58.690Z,2.02
2023-01-18T00:14:58.596Z,2.00
2023-01-18T00:15:58.605Z,2.00
2023-01-18T00:16:58.574Z,2.02
2023-01-18T00:17:58.582Z,1.99
2023-01-18T00:18:58.581Z,2.00
2023-01-18T00:19:58.570Z,1.99
2023-01-18T00:20:58.554Z,2.00
2023-01-18T00:21:58.560Z,2.02
2023-01-18T00:22:58.806Z,2.04
2023-01-18T00:23:58.502Z,2.04
2023-01-18T00:24:58.496Z,2.06
2023-01-18T00:25:58.519Z,2.07
2023-01-18T00:26:58.435Z,2.08
2023-01-18T00:27:58.472Z,2.08
2023-01-18T00:28:58.415Z,2.10
2023-01-18T00:29:58.439Z,2.11
2023-01-18T00:30:58.528Z,2.11
2023-01-18T00:31:58.447Z,2.11
2023-01-18T00:32:58.743Z,2.15
2023-01-18T00:33:58.393Z,2.17
2023-01-18T00:34:58.337Z,2.18
2023-01-18T00:35:58.408Z,2.22
2023-01-18T00:36:58.302Z,2.22
2023-01-18T00:37:58.323Z,2.24
2023-01-18T00:38:58.305Z,2.20
2023-01-18T00:39:58.288Z,2.18
2023-01-18T00:40:58.275Z,2.17
2023-01-18T00:41:58.294Z,2.18
2023-01-18T00:42:58.640Z,2.18
2023-01-18T00:43:58.259Z,2.17
2023-01-18T00:44:58.194Z,2.15
2023-01-18T00:45:58.370Z,2.15
2023-01-18T00:46:58.183Z,2.18
2023-01-18T00:47:58.215Z,2.20
2023-01-18T00:48:58.175Z,2.22
2023-01-18T00:49:58.209Z,2.22
2023-01-18T00:50:58.148Z,2.25
2023-01-18T00:51:58.892Z,2.29
2023-01-18T00:52:58.452Z,2.29
2023-01-18T00:53:58.119Z,2.29
2023-01-18T00:54:58.148Z,2.29
2023-01-18T00:55:58.117Z,2.31
2023-01-18T00:56:58.059Z,2.31
2023-01-18T00:57:58.112Z,2.32
2023-01-18T00:58:58.022Z,2.31
2023-01-18T00:59:58.224Z,2.25
2023-01-18T01:00:58.102Z,2.24
2023-01-18T01:01:58.145Z,2.22
2023-01-18T01:02:58.255Z,2.20
2023-01-18T01:03:58.030Z,2.20
2023-01-18T01:04:58.024Z,2.22
2023-01-18T01:05:57.951Z,2.25
2023-01-18T01:06:57.931Z,2.25
2023-01-18T01:07:57.949Z,2.26
2023-01-18T01:08:57.930Z,2.26
2023-01-18T01:09:58.053Z,2.25
2023-01-18T01:10:57.906Z,2.24
2023-01-18T01:11:57.879Z,2.20
2023-01-18T01:12:58.305Z,2.22
2023-01-18T01:13:57.843Z,2.25
2023-01-18T01:14:57.888Z,2.24
2023-01-18T01:15:57.804Z,2.25
2023-01-18T01:16:57.860Z,2.28
2023-01-18T01:17:57.793Z,2.28
2023-01-18T01:18:57.811Z,2.28
2023-01-18T01:19:57.761Z,2.29
2023-01-18T01:20:57.779Z,2.32
2023-01-18T01:21:57.778Z,2.31
2023-01-18T01:22:58.146Z,2.32
2023-01-18T01:23:57.702Z,2.35
2023-01-18T01:24:57.760Z,2.36
2023-01-18T01:25:57.680Z,2.39
2023-01-18T01:26:57.690Z,2.38
2023-01-18T01:27:57.673Z,2.39
2023-01-18T01:28:57.667Z,2.42
2023-01-18T01:29:57.644Z,2.44
2023-01-18T01:30:57.712Z,2.44
2023-01-18T01:31:57.593Z,2.47
2023-01-18T01:32:58.101Z,2.47
2023-01-18T01:33:57.610Z,2.46
2023-01-18T01:34:57.603Z,2.46
2023-01-18T01:35:57.553Z,2.47
2023-01-18T01:36:57.580Z,2.44
2023-01-18T01:37:57.523Z,2.49
2023-01-18T01:38:57.521Z,2.50
2023-01-18T01:39:57.540Z,2.51
2023-01-18T01:40:57.557Z,2.51
2023-01-18T01:41:57.480Z,2.50
2023-01-18T01:42:58.014Z,2.51
2023-01-18T01:43:57.446Z,2.54
2023-01-18T01:44:57.457Z,2.53
2023-01-18T01:45:57.512Z,2.56
2023-01-18T01:46:57.439Z,2.57
2023-01-18T01:47:57.406Z,2.56
2023-01-18T01:48:57.429Z,2.60
2023-01-18T01:49:57.377Z,2.60
2023-01-18T01:50:57.376Z,2.61
2023-01-18T01:52:04.389Z,2.62
2023-01-18T01:52:57.819Z,2.62
2023-01-18T01:53:57.337Z,2.64
2023-01-18T01:54:57.317Z,2.64
2023-01-18T01:55:57.336Z,2.65
2023-01-18T01:56:58.258Z,2.65
2023-01-18T01:57:57.268Z,2.65
2023-01-18T01:58:57.283Z,2.64
2023-01-18T01:59:57.252Z,2.67
2023-01-18T02:00:57.346Z,2.68
2023-01-18T02:01:57.300Z,2.71
2023-01-18T02:02:57.607Z,2.67
2023-01-18T02:03:57.214Z,2.64
2023-01-18T02:04:57.293Z,2.64
2023-01-18T02:05:57.183Z,2.62
2023-01-18T02:06:58.123Z,2.62
2023-01-18T02:07:57.265Z,2.64
2023-01-18T02:08:57.282Z,2.65
2023-01-18T02:09:57.272Z,2.64
2023-01-18T02:10:57.161Z,2.62
2023-01-18T02:11:57.147Z,2.64
2023-01-18T02:12:58.480Z,2.64
2023-01-18T02:13:57.211Z,2.61
2023-01-18T02:14:57.163Z,2.61
2023-01-18T02:15:57.254Z,2.61
2023-01-18T02:16:57.487Z,2.65
2023-01-18T02:17:57.934Z,2.64
2023-01-18T02:18:57.856Z,2.65
2023-01-18T02:19:57.047Z,2.64
2023-01-18T02:20:57.218Z,2.64
2023-01-18T02:21:57.215Z,2.64
2023-01-18T02:22:57.755Z,2.64
2023-01-18T02:23:56.977Z,2.64
2023-01-18T02:24:58.924Z,2.65
2023-01-18T02:25:56.957Z,2.65
2023-01-18T02:26:56.986Z,2.68
2023-01-18T02:27:56.928Z,2.69
2023-01-18T02:28:56.959Z,2.68
2023-01-18T02:29:56.951Z,2.71
2023-01-18T02:30:56.974Z,2.71
2023-01-18T02:31:56.827Z,2.72
2023-01-18T02:32:57.248Z,2.71
2023-01-18T02:33:56.815Z,2.69
2023-01-18T02:34:56.804Z,2.68
2023-01-18T02:35:56.880Z,2.68
2023-01-18T02:36:56.797Z,2.67
2023-01-18T02:37:57.504Z,2.67
2023-01-18T02:38:56.773Z,2.67
2023-01-18T02:39:56.760Z,2.67
2023-01-18T02:40:56.800Z,2.64
2023-01-18T02:41:56.690Z,2.65
2023-01-18T02:42:57.142Z,2.62
2023-01-18T02:43:57.411Z,2.64
2023-01-18T02:44:57.532Z,2.65
2023-01-18T02:45:56.645Z,2.65
2023-01-18T02:46:56.658Z,2.67
2023-01-18T02:47:56.620Z,2.67
2023-01-18T02:48:56.966Z,2.67
2023-01-18T02:49:56.615Z,2.67
2023-01-18T02:50:56.712Z,2.65
2023-01-18T02:51:57.935Z,2.67
2023-01-18T02:52:57.491Z,2.65
2023-01-18T02:53:56.550Z,2.67
2023-01-18T02:54:56.703Z,2.67
2023-01-18T02:55:56.555Z,2.68
2023-01-18T02:56:56.547Z,2.69
2023-01-18T02:57:56.852Z,2.69
2023-01-18T02:58:56.530Z,2.68
2023-01-18T02:59:56.461Z,2.68
2023-01-18T03:00:56.608Z,2.68
2023-01-18T03:01:57.960Z,2.68
2023-01-18T03:02:57.630Z,2.68
2023-01-18T03:03:57.320Z,2.68
2023-01-18T03:04:56.436Z,2.67
2023-01-18T03:05:56.414Z,2.65
2023-01-18T03:06:56.427Z,2.64
2023-01-18T03:07:56.369Z,2.62
2023-01-18T03:08:56.413Z,2.60
2023-01-18T03:09:56.337Z,2.57
2023-01-18T03:10:57.294Z,2.57
2023-01-18T03:11:56.356Z,2.57
2023-01-18T03:12:56.784Z,2.57
2023-01-18T03:13:56.312Z,2.53
2023-01-18T03:14:56.680Z,2.53
2023-01-18T03:15:56.298Z,2.51
2023-01-18T03:16:57.040Z,2.51
2023-01-18T03:17:56.355Z,2.53
2023-01-18T03:18:56.279Z,2.53
2023-01-18T03:19:56.247Z,2.50
2023-01-18T03:20:56.245Z,2.50
2023-01-18T03:21:56.185Z,2.49
2023-01-18T03:22:56.787Z,2.49
2023-01-18T03:23:56.192Z,2.51
2023-01-18T03:24:57.190Z,2.53
2023-01-18T03:25:56.147Z,2.54
2023-01-18T03:26:57.072Z,2.56
2023-01-18T03:27:58.691Z,2.56
2023-01-18T03:28:56.106Z,2.56
2023-01-18T03:29:56.074Z,2.57
2023-01-18T03:30:56.196Z,2.57
2023-01-18T03:31:56.902Z,2.56
2023-01-18T03:32:56.348Z,2.56
2023-01-18T03:33:56.164Z,2.56
2023-01-18T03:34:56.054Z,2.54
2023-01-18T03:35:56.016Z,2.57
2023-01-18T03:36:56.030Z,2.57
2023-01-18T03:37:55.969Z,2.57
2023-01-18T03:38:56.003Z,2.61
2023-01-18T03:39:55.948Z,2.60
2023-01-18T03:40:55.969Z,2.61
2023-01-18T03:41:57.658Z,2.61
2023-01-18T03:42:56.320Z,2.64
2023-01-18T03:43:55.916Z,2.67
2023-01-18T03:44:56.642Z,2.65
2023-01-18T03:45:55.920Z,2.65
2023-01-18T03:46:55.883Z,2.65
2023-01-18T03:47:55.862Z,2.64
2023-01-18T03:48:55.852Z,2.65
2023-01-18T03:49:56.063Z,2.65
2023-01-18T03:50:55.841Z,2.65
2023-01-18T03:51:55.817Z,2.64
2023-01-18T03:52:59.013Z,2.65
2023-01-18T03:53:55.773Z,2.62
2023-01-18T03:54:55.789Z,2.60
2023-01-18T03:55:55.758Z,2.62
2023-01-18T03:56:55.796Z,2.61
2023-01-18T03:57:55.717Z,2.61
2023-01-18T03:58:56.777Z,2.62
2023-01-18T03:59:55.731Z,2.65
2023-01-18T04:00:55.728Z,2.64
2023-01-18T04:01:55.873Z,2.65
2023-01-18T04:02:56.202Z,2.65
2023-01-18T04:03:55.636Z,2.67
2023-01-18T04:04:56.811Z,2.68
2023-01-18T04:05:55.623Z,2.67
2023-01-18T04:06:55.622Z,2.67
2023-01-18T04:07:55.584Z,2.69
2023-01-18T04:08:55.596Z,2.72
2023-01-18T04:09:55.802Z,2.72
2023-01-18T04:10:55.579Z,2.67
2023-01-18T04:11:55.563Z,2.64
2023-01-18T04:12:56.967Z,2.65
2023-01-18T04:13:56.468Z,2.67
2023-01-18T04:14:55.534Z,2.67
2023-01-18T04:15:55.540Z,2.68
2023-01-18T04:16:55.529Z,2.69
2023-01-18T04:17:55.475Z,2.71
2023-01-18T04:18:55.495Z,2.71
2023-01-18T04:19:55.432Z,2.72
2023-01-18T04:20:56.551Z,2.72
2023-01-18T04:21:55.459Z,2.74
2023-01-18T04:22:56.614Z,2.75
2023-01-18T04:23:55.385Z,2.74
2023-01-18T04:24:55.519Z,2.75
2023-01-18T04:25:55.408Z,2.74
2023-01-18T04:26:55.388Z,2.75
2023-01-18T04:27:55.538Z,2.74
2023-01-18T04:28:55.342Z,2.77
2023-01-18T04:29:56.528Z,2.74
2023-01-18T04:30:55.402Z,2.74
2023-01-18T04:31:57.008Z,2.72
2023-01-18T04:32:56.757Z,2.74
2023-01-18T04:33:55.258Z,2.72
2023-01-18T04:34:55.266Z,2.74
2023-01-18T04:35:55.227Z,2.72
2023-01-18T04:36:55.256Z,2.71
2023-01-18T04:37:55.205Z,2.72
2023-01-18T04:38:55.393Z,2.71
2023-01-18T04:39:55.224Z,2.72
2023-01-18T04:40:55.202Z,2.71
2023-01-18T04:41:57.336Z,2.64
2023-01-18T04:42:57.973Z,2.62
2023-01-18T04:43:55.161Z,2.62
2023-01-18T04:44:56.951Z,2.64
2023-01-18T04:45:55.099Z,2.67
2023-01-18T04:46:55.168Z,2.67
2023-01-18T04:47:55.076Z,2.67
2023-01-18T04:48:55.099Z,2.68
2023-01-18T04:49:55.112Z,2.69
2023-01-18T04:50:55.070Z,2.69
2023-01-18T04:51:55.781Z,2.71
2023-01-18T04:52:56.281Z,2.71
2023-01-18T04:53:55.000Z,2.71
2023-01-18T04:54:55.021Z,2.71
2023-01-18T04:55:55.222Z,2.71
2023-01-18T04:56:54.982Z,2.69
2023-01-18T04:57:55.042Z,2.67
2023-01-18T04:58:54.962Z,2.69
2023-01-18T04:59:54.929Z,2.69
2023-01-18T05:00:55.045Z,2.71
2023-01-18T05:01:54.947Z,2.72
2023-01-18T05:02:54.909Z,2.69
2023-01-18T05:03:54.883Z,2.72
2023-01-18T05:04:54.889Z,2.72
2023-01-18T05:05:54.890Z,2.74
2023-01-18T05:06:55.628Z,2.74
2023-01-18T05:07:54.859Z,2.75
2023-01-18T05:08:55.630Z,2.74
2023-01-18T05:09:54.789Z,2.75
2023-01-18T05:10:55.526Z,2.75
2023-01-18T05:11:56.705Z,2.74
2023-01-18T05:12:56.030Z,2.75
2023-01-18T05:13:54.901Z,2.75
2023-01-18T05:14:54.745Z,2.74
2023-01-18T05:15:54.945Z,2.72
2023-01-18T05:16:54.721Z,2.74
2023-01-18T05:17:56.883Z,2.72
2023-01-18T05:18:54.705Z,2.71
2023-01-18T05:19:55.661Z,2.71
2023-01-18T05:20:54.685Z,2.72
2023-01-18T05:21:54.658Z,2.71
2023-01-18T05:22:54.728Z,2.72
2023-01-18T05:23:54.663Z,2.72
2023-01-18T05:24:54.697Z,2.72
2023-01-18T05:25:55.428Z,2.69
2023-01-18T05:26:55.519Z,2.69
2023-01-18T05:27:54.758Z,2.71
2023-01-18T05:28:55.356Z,2.71
2023-01-18T05:29:54.703Z,2.71
2023-01-18T05:30:54.561Z,2.72
2023-01-18T05:31:54.552Z,2.65
2023-01-18T05:32:55.435Z,2.68
2023-01-18T05:33:55.525Z,2.68
2023-01-18T05:34:54.497Z,2.67
2023-01-18T05:35:54.479Z,2.67
2023-01-18T05:36:54.470Z,2.67
2023-01-18T05:37:54.535Z,2.68
2023-01-18T05:38:54.526Z,2.68
2023-01-18T05:39:54.514Z,2.68
2023-01-18T05:40:54.396Z,2.71
2023-01-18T05:41:54.433Z,2.69
2023-01-18T05:42:54.356Z,2.69
2023-01-18T05:43:54.407Z,2.69
2023-01-18T05:44:54.396Z,2.68
2023-01-18T05:45:55.246Z,2.71
2023-01-18T05:46:54.847Z,2.71
2023-01-18T05:47:54.366Z,2.72
2023-01-18T05:48:54.344Z,2.71
2023-01-18T05:49:54.511Z,2.74
2023-01-18T05:50:54.266Z,2.72
2023-01-18T05:51:54.304Z,2.71
2023-01-18T05:52:54.246Z,2.71
2023-01-18T05:53:56.014Z,2.72
2023-01-18T05:54:54.210Z,2.71
2023-01-18T05:55:54.221Z,2.72
2023-01-18T05:56:54.187Z,2.71
2023-01-18T05:57:55.287Z,2.69
2023-01-18T05:58:54.264Z,2.67
2023-01-18T05:59:54.190Z,2.69
2023-01-18T06:00:54.159Z,2.67
2023-01-18T06:01:54.175Z,2.67
2023-01-18T06:02:54.963Z,2.67
2023-01-18T06:03:54.136Z,2.65
2023-01-18T06:04:54.084Z,2.65
2023-01-18T06:05:54.259Z,2.65
2023-01-18T06:06:54.098Z,2.65
2023-01-18T06:07:54.292Z,2.67
2023-01-18T06:08:54.087Z,2.67
2023-01-18T06:09:56.892Z,2.68
2023-01-18T06:10:54.018Z,2.69
2023-01-18T06:11:54.107Z,2.68
2023-01-18T06:12:54.165Z,2.67
2023-01-18T06:13:54.006Z,2.69
2023-01-18T06:14:54.145Z,2.69
2023-01-18T06:15:53.977Z,2.71
2023-01-18T06:16:54.097Z,2.69
2023-01-18T06:17:53.958Z,2.72
2023-01-18T06:18:54.176Z,2.69
2023-01-18T06:19:54.946Z,2.69
2023-01-18T06:20:54.315Z,2.71
2023-01-18T06:21:53.884Z,2.72
2023-01-18T06:22:53.888Z,2.80
2023-01-18T06:23:54.604Z,2.80
2023-01-18T06:24:54.685Z,3.00
2023-01-18T06:25:53.832Z,3.04
2023-01-18T06:26:53.946Z,3.03
2023-01-18T06:27:54.589Z,3.03
2023-01-18T06:28:53.887Z,2.97
2023-01-18T06:29:53.964Z,2.97
2023-01-18T06:30:54.123Z,2.93
2023-01-18T06:31:53.961Z,2.87
2023-01-18T06:32:53.728Z,2.86
2023-01-18T06:33:53.738Z,2.80
2023-01-18T06:34:54.507Z,2.79
2023-01-18T06:35:53.706Z,2.77
2023-01-18T06:36:53.696Z,2.74
2023-01-18T06:37:53.724Z,2.74
2023-01-18T06:38:53.754Z,2.74
2023-01-18T06:39:53.719Z,2.74
2023-01-18T06:40:53.652Z,2.69
2023-01-18T06:41:53.634Z,2.71
2023-01-18T06:42:54.423Z,2.68
2023-01-18T06:43:53.542Z,2.72
2023-01-18T06:44:53.512Z,2.75
2023-01-18T06:45:54.340Z,2.72
2023-01-18T06:46:53.614Z,2.72
2023-01-18T06:47:53.672Z,2.71
2023-01-18T06:48:54.855Z,2.71
2023-01-18T06:49:53.500Z,2.71
2023-01-18T06:50:53.464Z,2.68
2023-01-18T06:51:53.509Z,2.65
2023-01-18T06:52:53.638Z,2.65
2023-01-18T06:53:53.651Z,2.61
2023-01-18T06:54:53.485Z,2.57
2023-01-18T06:55:53.550Z,2.54
2023-01-18T06:56:53.380Z,2.53
2023-01-18T06:57:53.662Z,2.51
2023-01-18T06:58:53.333Z,2.49
2023-01-18T06:59:53.403Z,2.50
2023-01-18T07:00:53.392Z,2.44
2023-01-18T07:01:53.447Z,2.44
2023-01-18T07:02:53.424Z,2.46
2023-01-18T07:03:53.375Z,2.49
2023-01-18T07:04:53.272Z,2.47
2023-01-18T07:05:53.292Z,2.44
2023-01-18T07:06:53.229Z,2.47
2023-01-18T07:07:54.213Z,2.46
2023-01-18T07:08:54.514Z,2.42
2023-01-18T07:09:53.234Z,2.42
2023-01-18T07:10:53.227Z,2.35
2023-01-18T07:11:53.193Z,2.32
2023-01-18T07:12:53.320Z,2.35
2023-01-18T07:13:53.216Z,2.35
2023-01-18T07:14:53.135Z,2.33
2023-01-18T07:15:53.150Z,2.32
2023-01-18T07:16:53.174Z,2.31
2023-01-18T07:17:53.142Z,2.31
2023-01-18T07:18:53.102Z,2.31
2023-01-18T07:19:53.100Z,2.28
2023-01-18T07:20:53.062Z,2.28
2023-01-18T07:21:53.081Z,2.31
2023-01-18T07:22:53.061Z,2.28
2023-01-18T07:23:53.069Z,2.29
2023-01-18T07:24:53.020Z,2.28
2023-01-18T07:25:53.007Z,2.26
2023-01-18T07:26:53.018Z,2.26
2023-01-18T07:27:53.052Z,2.25
2023-01-18T07:28:52.960Z,2.20
2023-01-18T07:29:53.048Z,2.20
2023-01-18T07:30:52.968Z,2.17
2023-01-18T07:31:53.036Z,2.14
2023-01-18T07:32:53.042Z,2.14
2023-01-18T07:33:53.040Z,2.17
2023-01-18T07:34:52.872Z,2.14
2023-01-18T07:35:52.912Z,2.14
2023-01-18T07:36:52.894Z,2.15
2023-01-18T07:37:52.876Z,2.17
2023-01-18T07:38:52.821Z,2.15
2023-01-18T07:39:52.826Z,2.17
2023-01-18T07:40:52.798Z,2.17
2023-01-18T07:41:53.608Z,2.14
2023-01-18T07:42:52.798Z,2.13
2023-01-18T07:43:52.778Z,2.11
2023-01-18T07:44:52.745Z,2.11
2023-01-18T07:45:52.853Z,2.14
2023-01-18T07:46:52.789Z,2.15
2023-01-18T07:47:53.684Z,2.13
2023-01-18T07:48:52.695Z,2.15
2023-01-18T07:49:52.714Z,2.14
2023-01-18T07:50:52.682Z,2.15
2023-01-18T07:51:52.770Z,2.15
2023-01-18T07:53:00.158Z,2.10
2023-01-18T07:53:55.423Z,2.11
2023-01-18T07:54:52.623Z,2.11
2023-01-18T07:55:52.650Z,2.11
2023-01-18T07:56:52.594Z,2.07
2023-01-18T07:57:52.634Z,2.00
2023-01-18T07:58:52.563Z,1.99
2023-01-18T07:59:52.619Z,1.97
2023-01-18T08:00:52.594Z,1.99
2023-01-18T08:01:52.609Z,2.00
2023-01-18T08:02:52.566Z,1.99
2023-01-18T08:03:52.510Z,2.04
2023-01-18T08:04:52.565Z,2.02
2023-01-18T08:05:52.509Z,2.02
2023-01-18T08:06:52.512Z,2.02
2023-01-18T08:07:52.498Z,1.95
2023-01-18T08:08:52.442Z,1.94
2023-01-18T08:09:52.459Z,1.99
2023-01-18T08:10:52.421Z,2.00
2023-01-18T08:11:52.425Z,2.04
2023-01-18T08:12:52.425Z,2.06
2023-01-18T08:13:52.400Z,2.02
2023-01-18T08:14:52.371Z,2.02
2023-01-18T08:15:52.404Z,2.04
2023-01-18T08:16:52.336Z,2.06
2023-01-18T08:17:52.397Z,2.07
2023-01-18T08:18:52.345Z,2.08
2023-01-18T08:19:52.381Z,2.06
2023-01-18T08:20:54.335Z,2.08
2023-01-18T08:21:52.309Z,2.08
2023-01-18T08:22:52.297Z,2.10
2023-01-18T08:23:52.277Z,2.13
2023-01-18T08:24:52.245Z,2.17
2023-01-18T08:25:52.255Z,2.17
2023-01-18T08:26:52.214Z,2.18
2023-01-18T08:27:52.279Z,2.18
2023-01-18T08:28:52.189Z,2.17
2023-01-18T08:29:52.209Z,2.17
2023-01-18T08:30:52.179Z,2.20
2023-01-18T08:31:52.175Z,2.15
2023-01-18T08:32:52.131Z,2.15
2023-01-18T08:33:52.186Z,2.13
2023-01-18T08:34:52.105Z,2.13
2023-01-18T08:35:52.143Z,2.10
2023-01-18T08:36:52.075Z,2.13
2023-01-18T08:37:52.100Z,2.14
2023-01-18T08:38:52.077Z,2.14
2023-01-18T08:39:52.089Z,2.11
2023-01-18T08:40:52.029Z,2.10
2023-01-18T08:41:52.782Z,2.11
2023-01-18T08:42:52.040Z,2.15
2023-01-18T08:43:52.017Z,2.18
2023-01-18T08:44:52.029Z,2.22
2023-01-18T08:45:51.995Z,2.20
2023-01-18T08:46:51.947Z,2.20
2023-01-18T08:47:51.963Z,2.20
2023-01-18T08:48:51.939Z,2.24
2023-01-18T08:49:51.964Z,2.26
2023-01-18T08:50:51.898Z,2.31
2023-01-18T08:51:51.919Z,2.32
2023-01-18T08:52:51.862Z,2.33
2023-01-18T08:53:51.903Z,2.29
2023-01-18T08:54:51.841Z,2.28
2023-01-18T08:55:51.895Z,2.29
2023-01-18T08:56:51.833Z,2.26
2023-01-18T08:57:51.819Z,2.26
2023-01-18T08:58:51.830Z,2.29
2023-01-18T08:59:51.836Z,2.29
2023-01-18T09:00:51.790Z,2.32
2023-01-18T09:01:51.811Z,2.39
2023-01-18T09:02:51.818Z,2.43
2023-01-18T09:03:51.746Z,2.44
2023-01-18T09:04:51.735Z,2.49
2023-01-18T09:05:51.749Z,2.51
2023-01-18T09:06:51.750Z,2.53
2023-01-18T09:07:51.695Z,2.53
2023-01-18T09:08:51.679Z,2.57
2023-01-18T09:09:51.701Z,2.56
2023-01-18T09:10:51.661Z,2.56
2023-01-18T09:11:51.736Z,2.57
2023-01-18T09:12:53.598Z,2.56
2023-01-18T09:14:00.540Z,2.56
2023-01-18T09:14:52.591Z,2.56
2023-01-18T09:15:51.731Z,2.53
2023-01-18T09:16:51.708Z,2.51
2023-01-18T09:17:51.595Z,2.54
2023-01-18T09:18:51.540Z,2.53
2023-01-18T09:19:51.538Z,2.44
2023-01-18T09:20:51.510Z,2.38
2023-01-18T09:21:51.542Z,2.39
2023-01-18T09:22:51.535Z,2.36
2023-01-18T09:23:51.516Z,2.38
2023-01-18T09:24:51.804Z,2.35
2023-01-18T09:25:51.483Z,2.33
2023-01-18T09:26:51.460Z,2.31
2023-01-18T09:27:51.458Z,2.32
2023-01-18T09:28:51.451Z,2.31
2023-01-18T09:29:51.419Z,2.31
2023-01-18T09:30:51.399Z,2.29
2023-01-18T09:31:51.391Z,2.28
2023-01-18T09:32:51.359Z,2.31
2023-01-18T09:33:53.851Z,2.33
2023-01-18T09:34:51.368Z,2.32
2023-01-18T09:35:52.212Z,2.33
2023-01-18T09:36:51.372Z,2.36
2023-01-18T09:37:51.356Z,2.38
2023-01-18T09:38:51.293Z,2.43
2023-01-18T09:39:52.526Z,2.44
2023-01-18T09:40:51.277Z,2.49
2023-01-18T09:41:51.255Z,2.54
2023-01-18T09:42:51.269Z,2.60
2023-01-18T09:43:51.239Z,2.60
2023-01-18T09:44:51.213Z,2.60
2023-01-18T09:45:51.196Z,2.61
2023-01-18T09:46:54.129Z,2.64
2023-01-18T09:47:51.158Z,2.65
2023-01-18T09:48:51.170Z,2.67
2023-01-18T09:49:51.141Z,2.69
2023-01-18T09:50:51.151Z,2.72
2023-01-18T09:51:51.112Z,2.79
2023-01-18T09:52:51.137Z,2.80
2023-01-18T09:53:51.091Z,2.85
2023-01-18T09:54:51.126Z,2.89
2023-01-18T09:55:51.093Z,2.85
2023-01-18T09:56:51.066Z,2.90
2023-01-18T09:57:51.079Z,2.95
2023-01-18T09:58:51.065Z,2.98
2023-01-18T09:59:51.002Z,2.95
2023-01-18T10:00:51.103Z,3.03
2023-01-18T10:01:51.970Z,3.00
2023-01-18T10:02:50.995Z,2.92
2023-01-18T10:03:50.962Z,2.90
2023-01-18T10:04:51.000Z,2.90
2023-01-18T10:05:50.986Z,2.85
2023-01-18T10:06:50.959Z,2.87
2023-01-18T10:07:50.922Z,2.89
2023-01-18T10:08:50.931Z,2.92
2023-01-18T10:09:50.908Z,2.98
2023-01-18T10:10:50.907Z,2.97
2023-01-18T10:11:50.859Z,2.92
2023-01-18T10:12:50.891Z,2.95
2023-01-18T10:13:50.825Z,3.00
2023-01-18T10:14:50.869Z,3.04
2023-01-18T10:15:50.804Z,3.10
2023-01-18T10:16:50.853Z,3.08
2023-01-18T10:17:50.777Z,3.13
2023-01-18T10:18:50.825Z,3.14
2023-01-18T10:19:50.750Z,3.14
2023-01-18T10:20:50.781Z,3.16
2023-01-18T10:21:50.731Z,3.18
2023-01-18T10:22:50.766Z,3.13
2023-01-18T10:23:50.727Z,3.03
2023-01-18T10:24:50.734Z,2.90
2023-01-18T10:25:50.669Z,2.86
2023-01-18T10:26:50.746Z,2.90
2023-01-18T10:27:50.649Z,2.93
2023-01-18T10:28:50.673Z,2.97
2023-01-18T10:29:50.671Z,2.98
2023-01-18T10:30:50.643Z,3.03
2023-01-18T10:31:50.689Z,3.03
2023-01-18T10:32:50.604Z,3.03
2023-01-18T10:33:50.579Z,3.04
2023-01-18T10:34:50.707Z,3.07
2023-01-18T10:35:50.603Z,3.10
2023-01-18T10:36:50.575Z,3.14
2023-01-18T10:37:50.615Z,3.16
2023-01-18T10:38:50.544Z,3.19
2023-01-18T10:39:50.536Z,3.22
2023-01-18T10:40:50.539Z,3.18
2023-01-18T10:41:50.479Z,3.22
2023-01-18T10:42:50.609Z,3.23
2023-01-18T10:43:50.547Z,3.26
2023-01-18T10:44:50.436Z,3.31
2023-01-18T10:45:50.471Z,3.34
2023-01-18T10:46:50.427Z,3.42
2023-01-18T10:47:50.420Z,3.36
2023-01-18T10:48:50.464Z,3.32
2023-01-18T10:49:50.367Z,3.32
2023-01-18T10:50:53.126Z,3.29
2023-01-18T10:51:50.376Z,3.31
2023-01-18T10:52:50.353Z,3.34
2023-01-18T10:53:50.447Z,3.34
2023-01-18T10:54:50.377Z,3.28
2023-01-18T10:55:50.440Z,3.23
2023-01-18T10:56:50.368Z,3.19
2023-01-18T10:57:50.278Z,3.08
2023-01-18T10:58:50.271Z,3.07
2023-01-18T10:59:50.239Z,3.11
2023-01-18T11:00:50.455Z,3.16
2023-01-18T11:01:50.437Z,3.22
2023-01-18T11:02:50.279Z,3.23
2023-01-18T11:03:50.225Z,3.25
2023-01-18T11:04:50.218Z,3.23
2023-01-18T11:05:50.172Z,3.23
2023-01-18T11:06:50.222Z,3.23
2023-01-18T11:07:50.164Z,3.26
2023-01-18T11:08:50.189Z,3.26
2023-01-18T11:09:50.221Z,3.31
2023-01-18T11:10:50.132Z,3.32
2023-01-18T11:11:50.126Z,3.40
2023-01-18T11:12:50.160Z,3.44
2023-01-18T11:13:50.077Z,3.50
2023-01-18T11:14:50.095Z,3.51
2023-01-18T11:15:50.133Z,3.45
2023-01-18T11:16:50.106Z,3.31
2023-01-18T11:17:50.019Z,3.22
2023-01-18T11:18:52.059Z,3.16
2023-01-18T11:19:50.008Z,3.18
2023-01-18T11:20:50.048Z,3.13
2023-01-18T11:21:51.659Z,3.14
2023-01-18T11:22:49.975Z,3.16
2023-01-18T11:23:50.099Z,3.14
2023-01-18T11:24:49.960Z,3.21
2023-01-18T11:25:49.970Z,3.28
2023-01-18T11:26:49.916Z,3.34
2023-01-18T11:27:49.892Z,3.40
2023-01-18T11:28:50.006Z,3.51
2023-01-18T11:29:49.871Z,3.59
2023-01-18T11:30:49.884Z,3.70
2023-01-18T11:31:49.917Z,3.77
2023-01-18T11:32:49.839Z,3.81
2023-01-18T11:33:50.259Z,3.86
2023-01-18T11:34:49.842Z,3.86
2023-01-18T11:35:49.789Z,3.73
2023-01-18T11:36:49.806Z,3.58
2023-01-18T11:37:49.759Z,3.48
2023-01-18T11:38:49.774Z,3.45
2023-01-18T11:39:49.828Z,3.48
2023-01-18T11:40:49.782Z,3.45
2023-01-18T11:41:49.714Z,3.48
2023-01-18T11:42:49.736Z,3.51
2023-01-18T11:43:49.697Z,3.56
2023-01-18T11:44:49.779Z,3.55
2023-01-18T11:45:49.736Z,3.58
2023-01-18T11:46:49.680Z,3.51
2023-01-18T11:47:49.655Z,3.45
2023-01-18T11:48:49.757Z,3.50
2023-01-18T11:49:49.644Z,3.53
2023-01-18T11:50:49.625Z,3.56
2023-01-18T11:51:49.607Z,3.65
2023-01-18T11:52:49.620Z,3.69
2023-01-18T11:53:49.648Z,3.66
2023-01-18T11:54:49.641Z,3.65
2023-01-18T11:55:49.644Z,3.60
2023-01-18T11:56:49.588Z,3.56
2023-01-18T11:57:49.555Z,3.53
2023-01-18T11:58:49.664Z,3.50
2023-01-18T11:59:49.571Z,3.45
2023-01-18T12:00:49.607Z,3.44
2023-01-18T12:01:49.633Z,3.42
2023-01-18T12:02:49.464Z,3.45
2023-01-18T12:03:49.480Z,3.42
2023-01-18T12:04:49.582Z,3.40
2023-01-18T12:05:49.444Z,3.44
2023-01-18T12:06:49.453Z,3.44
2023-01-18T12:07:49.403Z,3.45
2023-01-18T12:08:49.476Z,3.47
2023-01-18T12:09:49.372Z,3.53
2023-01-18T12:10:49.398Z,3.53
2023-01-18T12:11:49.457Z,3.58
2023-01-18T12:12:49.735Z,3.63
2023-01-18T12:13:49.318Z,3.66
2023-01-18T12:14:49.319Z,3.65
2023-01-18T12:15:49.287Z,3.62
2023-01-18T12:16:49.330Z,3.65
2023-01-18T12:17:49.313Z,3.65
2023-01-18T12:18:49.295Z,3.66
2023-01-18T12:19:49.353Z,3.62
2023-01-18T12:20:49.255Z,3.59
2023-01-18T12:21:49.231Z,3.60
2023-01-18T12:22:49.340Z,3.58
2023-01-18T12:23:49.222Z,3.51
2023-01-18T12:24:49.224Z,3.53
2023-01-18T12:25:49.179Z,3.56
2023-01-18T12:26:49.224Z,3.56
2023-01-18T12:27:49.171Z,3.58
2023-01-18T12:28:49.177Z,3.58
2023-01-18T12:29:49.129Z,3.56
2023-01-18T12:30:49.334Z,3.55
2023-01-18T12:31:49.168Z,3.55
2023-01-18T12:32:50.422Z,3.56
2023-01-18T12:33:49.118Z,3.58
2023-01-18T12:34:49.097Z,3.59
2023-01-18T12:35:49.046Z,3.58
2023-01-18T12:36:49.064Z,3.60
2023-01-18T12:37:49.024Z,3.60
2023-01-18T12:38:49.063Z,3.62
2023-01-18T12:39:49.039Z,3.65
2023-01-18T12:40:49.022Z,3.56
2023-01-18T12:41:49.075Z,3.56
2023-01-18T12:42:48.988Z,3.58
2023-01-18T12:43:48.960Z,3.59
2023-01-18T12:44:48.975Z,3.65
2023-01-18T12:45:49.111Z,3.68
2023-01-18T12:46:48.940Z,3.63
2023-01-18T12:47:48.915Z,3.62
2023-01-18T12:48:48.912Z,3.58
2023-01-18T12:49:48.877Z,3.56
2023-01-18T12:50:48.917Z,3.50
2023-01-18T12:51:48.884Z,3.50
2023-01-18T12:52:48.873Z,3.53
2023-01-18T12:53:48.826Z,3.47
2023-01-18T12:54:48.829Z,3.41
2023-01-18T12:55:48.849Z,3.41
2023-01-18T12:56:48.838Z,3.40
2023-01-18T12:57:48.792Z,3.36
2023-01-18T12:58:48.803Z,3.26
2023-01-18T12:59:48.780Z,3.29
2023-01-18T13:00:48.798Z,3.31
2023-01-18T13:01:48.861Z,3.31
2023-01-18T13:02:48.802Z,3.36
2023-01-18T13:03:48.707Z,3.40
2023-01-18T13:04:48.741Z,3.44
2023-01-18T13:05:48.692Z,3.45
2023-01-18T13:06:48.732Z,3.45
2023-01-18T13:07:48.648Z,3.44
2023-01-18T13:08:48.737Z,3.41
2023-01-18T13:09:48.643Z,3.42
2023-01-18T13:10:48.690Z,3.47
2023-01-18T13:11:48.609Z,3.51
2023-01-18T13:12:48.659Z,3.51
2023-01-18T13:13:48.576Z,3.48
2023-01-18T13:14:48.624Z,3.42
2023-01-18T13:15:48.610Z,3.36
2023-01-18T13:16:48.592Z,3.34
2023-01-18T13:17:48.524Z,3.32
2023-01-18T13:18:48.541Z,3.34